createdAt,value
2019-02-16T00:01:04.556Z,102261.22
2019-02-16T00:06:07.236Z,102263.83
2019-02-16T00:11:09.912Z,102254.71
2019-02-16T00:16:12.599Z,102242.53
2019-02-16T00:21:16.270Z,102251.69
2019-02-16T00:26:19.093Z,102245.14
2019-02-16T00:31:21.748Z,102235.58
2019-02-16T00:36:24.428Z,102231.70
2019-02-16T00:41:27.113Z,102227.31
2019-02-16T00:46:29.787Z,102222.56
2019-02-16T00:51:32.471Z,102219.92
2019-02-16T00:56:35.193Z,102217.33
2019-02-16T01:01:38.141Z,102214.28
2019-02-16T01:06:41.370Z,102212.98
2019-02-16T01:11:44.415Z,102215.61
2019-02-16T01:16:47.599Z,102216.05
2019-02-16T01:21:50.537Z,102218.25
2019-02-16T01:26:53.618Z,102212.59
2019-02-16T01:31:56.360Z,102198.67
2019-02-16T01:36:59.023Z,102193.48
2019-02-16T01:42:01.700Z,102194.31
2019-02-16T01:47:04.381Z,102179.13
2019-02-16T01:52:07.076Z,102176.96
2019-02-16T01:57:09.780Z,102173.45
2019-02-16T02:02:12.470Z,102166.52
2019-02-16T02:07:15.158Z,102155.22
2019-02-16T02:12:17.900Z,102149.15
2019-02-16T02:17:20.634Z,102153.45
2019-02-16T02:22:23.380Z,102146.06
2019-02-16T02:27:26.062Z,102136.06
2019-02-16T02:32:28.724Z,102139.57
2019-02-16T02:37:31.397Z,102143.05
2019-02-16T02:42:34.068Z,102135.22
2019-02-16T02:47:36.757Z,102140.88
2019-02-16T02:52:39.476Z,102143.05
2019-02-16T02:57:42.177Z,102140.41
2019-02-16T03:02:44.845Z,102151.70
2019-02-16T03:07:47.527Z,102142.91
2019-02-16T03:12:50.275Z,102141.14
2019-02-16T03:17:52.975Z,102144.12
2019-02-16T03:23:19.548Z,102137.61
2019-02-16T03:28:33.758Z,102128.40
2019-02-16T03:33:47.574Z,102124.48
2019-02-16T03:39:04.368Z,102125.37
2019-02-16T03:44:07.053Z,102117.50
2019-02-16T03:49:09.854Z,102114.35
2019-02-16T03:54:12.531Z,102109.98
2019-02-16T03:59:15.252Z,102115.59
2019-02-16T04:04:17.944Z,102109.09
2019-02-16T04:09:20.635Z,102105.72
2019-02-16T04:14:23.331Z,102098.88
2019-02-16T04:19:26.066Z,102088.95
2019-02-16T04:24:30.718Z,102093.32
2019-02-16T04:29:34.200Z,102077.28
2019-02-16T04:34:37.024Z,102072.96
2019-02-16T04:39:39.714Z,102076.87
2019-02-16T04:44:42.425Z,102078.59
2019-02-16T04:49:45.252Z,102077.29
2019-02-16T04:54:49.774Z,102085.05
2019-02-16T04:59:54.233Z,102055.90
2019-02-16T05:04:59.992Z,102070.56
2019-02-16T05:10:23.496Z,102069.67
2019-02-16T05:15:32.166Z,102075.34
2019-02-16T05:20:36.696Z,102081.02
2019-02-16T05:25:41.806Z,102078.91
2019-02-16T05:30:47.047Z,102079.38
2019-02-16T05:35:52.365Z,102088.53
2019-02-16T05:40:57.384Z,102092.48
2019-02-16T05:51:19.086Z,102084.72
2019-02-16T05:56:23.796Z,102076.48
2019-02-16T06:01:54.245Z,102075.61
2019-02-16T06:06:57.694Z,102075.19
2019-02-16T06:12:01.927Z,102072.51
2019-02-16T06:17:06.085Z,102088.48
2019-02-16T06:22:10.435Z,102082.79
2019-02-16T06:27:14.824Z,102094.86
2019-02-16T06:32:19.630Z,102093.13
2019-02-16T06:37:24.691Z,102098.34
2019-02-16T06:42:28.041Z,102104.44
2019-02-16T06:47:31.344Z,102119.22
2019-02-16T06:52:34.897Z,102114.02
2019-02-16T06:57:40.539Z,102117.02
2019-02-16T07:02:47.173Z,102119.15
2019-02-16T07:07:51.431Z,102119.15
2019-02-16T07:13:00.370Z,102126.61
2019-02-16T07:18:16.437Z,102118.41
2019-02-16T07:23:22.789Z,102115.39
2019-02-16T07:28:26.374Z,102120.59
2019-02-16T07:33:30.086Z,102131.46
2019-02-16T07:38:33.615Z,102130.17
2019-02-16T07:43:55.117Z,102121.11
2019-02-16T07:49:12.696Z,102113.30
2019-02-16T07:54:38.699Z,102118.56
2019-02-16T08:00:05.216Z,102120.73
2019-02-16T08:05:27.848Z,102122.53
2019-02-16T08:10:54.237Z,102132.98
2019-02-16T08:16:18.395Z,102140.00
2019-02-16T08:21:49.097Z,102132.20
2019-02-16T08:27:05.859Z,102135.63
2019-02-16T08:32:31.976Z,102120.37
2019-02-16T08:37:48.447Z,102119.44
2019-02-16T08:43:10.137Z,102124.99
2019-02-16T08:48:33.392Z,102125.35
2019-02-16T08:53:49.908Z,102110.03
2019-02-16T08:59:00.345Z,102111.57
2019-02-16T09:04:39.012Z,102111.42
2019-02-16T09:10:20.076Z,102107.77
2019-02-16T09:15:42.186Z,102091.53
2019-02-16T09:21:04.648Z,102090.73
2019-02-16T09:26:26.762Z,102104.07
2019-02-16T09:31:58.581Z,102106.48
2019-02-16T09:37:24.920Z,102106.29
2019-02-16T09:42:46.593Z,102112.22
2019-02-16T09:48:19.284Z,102109.31
2019-02-16T09:53:42.718Z,102108.73
2019-02-16T09:59:06.063Z,102117.08
2019-02-16T10:04:34.316Z,102117.98
2019-02-16T10:09:51.498Z,102123.73
2019-02-16T10:15:21.158Z,102123.52
2019-02-16T10:20:44.004Z,102110.58
2019-02-16T10:26:07.282Z,102119.28
2019-02-16T10:31:36.817Z,102129.55
2019-02-16T10:36:58.612Z,102113.66
2019-02-16T10:42:12.835Z,102120.44
2019-02-16T10:47:48.343Z,102127.02
2019-02-16T10:53:01.675Z,102124.37
2019-02-16T10:58:24.849Z,102119.55
2019-02-16T11:03:41.020Z,102125.08
2019-02-16T11:08:51.483Z,102133.59
2019-02-16T11:14:21.017Z,102133.25
2019-02-16T11:19:43.263Z,102129.95
2019-02-16T11:25:06.626Z,102126.67
2019-02-16T11:30:28.576Z,102129.64
2019-02-16T11:35:58.385Z,102119.30
2019-02-16T11:46:23.124Z,102106.06
2019-02-16T11:51:35.382Z,102101.08
2019-02-16T11:57:01.226Z,102114.56
2019-02-16T12:02:17.922Z,102101.36
2019-02-16T12:07:43.541Z,102088.95
2019-02-16T12:13:19.036Z,102085.88
2019-02-16T12:18:28.416Z,102077.41
2019-02-16T12:23:43.580Z,102076.95
2019-02-16T12:29:03.888Z,102071.63
2019-02-16T12:34:29.067Z,102071.77
2019-02-16T12:39:46.552Z,102057.06
2019-02-16T12:45:07.811Z,102049.98
2019-02-16T12:50:35.861Z,102043.59
2019-02-16T12:55:50.207Z,102035.66
2019-02-16T13:01:15.436Z,102038.95
2019-02-16T13:06:36.485Z,102035.57
2019-02-16T13:12:07.885Z,102020.59
2019-02-16T13:17:31.652Z,102034.39
2019-02-16T13:22:57.044Z,102023.64
2019-02-16T13:28:21.953Z,102022.69
2019-02-16T13:33:56.510Z,102022.25
2019-02-16T13:39:25.827Z,102020.67
2019-02-16T13:44:36.223Z,102018.30
2019-02-16T13:49:45.573Z,102014.45
2019-02-16T13:54:53.953Z,102003.70
2019-02-16T14:00:17.602Z,102000.38
2019-02-16T14:05:34.415Z,102007.46
2019-02-16T14:10:51.632Z,102006.70
2019-02-16T14:16:17.638Z,102001.10
2019-02-16T14:21:23.201Z,102000.15
2019-02-16T14:26:27.566Z,102000.04
2019-02-16T14:31:31.859Z,101997.39
2019-02-16T14:36:38.635Z,102005.69
2019-02-16T14:41:42.436Z,102006.02
2019-02-16T14:46:46.062Z,102002.42
2019-02-16T14:51:50.356Z,101993.50
2019-02-16T14:56:54.491Z,102008.33
2019-02-16T15:01:59.193Z,102001.92
2019-02-16T15:07:03.191Z,101992.12
2019-02-16T15:12:07.356Z,101993.86
2019-02-16T15:17:10.991Z,101982.66
2019-02-16T15:22:15.516Z,101986.84
2019-02-16T15:27:31.716Z,101991.38
2019-02-16T15:32:37.240Z,101992.59
2019-02-16T15:37:49.486Z,101994.59
2019-02-16T15:42:57.262Z,102004.70
2019-02-16T15:48:03.273Z,102001.93
2019-02-16T15:53:06.264Z,101994.16
2019-02-16T15:58:10.406Z,101996.50
2019-02-16T16:03:15.093Z,101983.88
2019-02-16T16:08:42.173Z,101989.30
2019-02-16T16:14:12.717Z,102001.36
2019-02-16T16:19:31.468Z,101993.50
2019-02-16T16:24:43.103Z,101995.70
2019-02-16T16:30:11.294Z,102008.20
2019-02-16T16:35:31.305Z,101999.26
2019-02-16T16:41:00.989Z,102010.59
2019-02-16T16:52:10.589Z,101999.59
2019-02-16T16:57:21.729Z,102001.57
2019-02-16T17:02:45.878Z,101999.77
2019-02-16T17:08:09.763Z,102002.13
2019-02-16T17:13:28.877Z,102001.11
2019-02-16T17:18:38.979Z,102015.45
2019-02-16T17:24:02.399Z,102007.27
2019-02-16T17:29:34.453Z,102003.48
2019-02-16T17:35:06.445Z,102020.56
2019-02-16T17:40:28.606Z,102022.92
2019-02-16T17:45:59.234Z,102020.00
2019-02-16T17:51:23.805Z,102024.75
2019-02-16T17:56:49.986Z,102022.39
2019-02-16T18:02:26.773Z,102028.06
2019-02-16T18:07:44.067Z,102028.13
2019-02-16T18:13:00.855Z,102032.25
2019-02-16T18:18:23.978Z,102034.19
2019-02-16T18:23:56.515Z,102022.22
2019-02-16T18:29:19.897Z,102025.83
2019-02-16T18:34:41.937Z,102032.14
2019-02-16T18:39:58.612Z,102028.30
2019-02-16T18:45:12.508Z,102024.50
2019-02-16T18:50:28.039Z,102026.91
2019-02-16T18:56:02.485Z,102034.39
2019-02-16T19:01:30.869Z,102044.38
2019-02-16T19:06:46.261Z,102041.03
2019-02-16T19:12:20.766Z,102038.52
2019-02-16T19:17:46.535Z,102044.70
2019-02-16T19:22:59.997Z,102038.28
2019-02-16T19:28:23.064Z,102041.39
2019-02-16T19:33:43.942Z,102046.62
2019-02-16T19:38:57.383Z,102037.55
2019-02-16T19:44:22.460Z,102041.48
2019-02-16T19:49:44.220Z,102039.77
2019-02-16T19:55:05.796Z,102044.59
2019-02-16T20:00:36.107Z,102049.41
2019-02-16T20:06:11.644Z,102044.24
2019-02-16T20:11:33.995Z,102037.33
2019-02-16T20:16:49.455Z,102044.77
2019-02-16T20:22:18.643Z,102043.50
2019-02-16T20:27:37.237Z,102041.38
2019-02-16T20:33:03.475Z,102049.64
2019-02-16T20:38:37.156Z,102053.13
2019-02-16T20:44:03.259Z,102054.43
2019-02-16T20:49:16.581Z,102061.40
2019-02-16T20:54:38.680Z,102063.58
2019-02-16T20:59:50.695Z,102061.83
2019-02-16T21:05:17.308Z,102071.39
2019-02-16T21:10:34.198Z,102067.92
2019-02-16T21:15:49.239Z,102069.65
2019-02-16T21:21:16.700Z,102070.89
2019-02-16T21:26:46.136Z,102065.70
2019-02-16T21:32:00.732Z,102063.95
2019-02-16T21:37:41.995Z,102071.73
2019-02-16T21:43:07.216Z,102063.50
2019-02-16T21:48:38.667Z,102065.64
2019-02-16T21:54:12.620Z,102068.22
2019-02-16T21:59:37.146Z,102067.34
2019-02-16T22:05:11.557Z,102065.58
2019-02-16T22:10:22.696Z,102068.17
2019-02-16T22:15:25.458Z,102065.11
2019-02-16T22:20:28.369Z,102068.08
2019-02-16T22:25:31.141Z,102064.13
2019-02-16T22:30:33.868Z,102061.57
2019-02-16T22:35:36.588Z,102059.81
2019-02-16T22:40:39.289Z,102056.80
2019-02-16T22:45:41.989Z,102056.01
2019-02-16T22:50:44.689Z,102058.20
2019-02-16T22:55:47.379Z,102064.73
2019-02-16T23:00:52.301Z,102060.37
2019-02-16T23:05:54.991Z,102061.17
2019-02-16T23:10:57.688Z,102064.65
2019-02-16T23:16:00.389Z,102052.48
2019-02-16T23:21:03.108Z,102063.30
2019-02-16T23:26:05.803Z,102068.08
2019-02-16T23:31:08.496Z,102065.42
2019-02-16T23:36:11.229Z,102062.41
2019-02-16T23:41:13.912Z,102065.88
2019-02-16T23:46:16.636Z,102074.10
2019-02-16T23:51:19.344Z,102049.34
2019-02-16T23:56:22.048Z,102047.10
